This is the latest recevied weather packets stored in our database for station/object SP1BMW-13. If no packets are shown the sender has not sent any weather packets the latest 10 day(s).
| Time | Temp. | Humidity | Pressure | Rain* | Wind** | Luminosity | Snow |
|---|---|---|---|---|---|---|---|
| 1777715425 | 24.44° C | 32% | 1020.8 hPa | 0 mm | 0.89 m/s, 137° | 639 W/m² | - |
| 1777715365 | 24.44° C | 31% | 1020.9 hPa | 0 mm | 1.79 m/s, 354° | 638 W/m² | - |
| 1777715305 | 24.44° C | 33% | 1020.8 hPa | 0 mm | 0.89 m/s, 130° | 637 W/m² | - |
| 1777715245 | 24.44° C | 31% | 1020.9 hPa | 0 mm | 2.24 m/s, 83° | 636 W/m² | - |
| 1777715184 | 24.44° C | 32% | 1020.9 hPa | 0 mm | 1.34 m/s, 132° | 633 W/m² | - |
| 1777715125 | 24.44° C | 32% | 1020.8 hPa | 0 mm | 1.79 m/s, 251° | 633 W/m² | - |
| 1777715065 | 24.44° C | 33% | 1020.8 hPa | 0 mm | 0.89 m/s, 180° | 632 W/m² | - |
| 1777715005 | 24.44° C | 32% | 1020.8 hPa | 0 mm | 1.34 m/s, 10° | 631 W/m² | - |
| 1777714945 | 24.44° C | 32% | 1020.9 hPa | 0 mm | 0 m/s | 629 W/m² | - |
| 1777714884 | 24.44° C | 31% | 1020.9 hPa | 0 mm | 1.79 m/s, 51° | 626 W/m² | - |
| 1777714825 | 25° C | 31% | 1020.9 hPa | 0 mm | 1.34 m/s, 53° | 624 W/m² | - |
| 1777714764 | 24.44° C | 31% | 1021.1 hPa | 0 mm | 0.89 m/s, 333° | 623 W/m² | - |
| 1777714704 | 24.44° C | 31% | 1020.9 hPa | 0 mm | 0.89 m/s, 240° | 622 W/m² | - |
| 1777714644 | 24.44° C | 31% | 1020.9 hPa | 0 mm | 0 m/s | 620 W/m² | - |
| 1777714585 | 24.44° C | 32% | 1020.9 hPa | 0 mm | 0 m/s | 619 W/m² | - |
| 1777714525 | 24.44° C | 32% | 1021.2 hPa | 0 mm | 0.89 m/s, 151° | 617 W/m² | - |
| 1777714464 | 24.44° C | 32% | 1021.2 hPa | 0 mm | 1.34 m/s, 146° | 614 W/m² | - |
| 1777714405 | 24.44° C | 33% | 1021.1 hPa | 0 mm | 0.45 m/s, 239° | 610 W/m² | - |
| 1777714344 | 24.44° C | 33% | 1021 hPa | 0 mm | 0.45 m/s, 17° | 611 W/m² | - |
| 1777714285 | 24.44° C | 31% | 1021.1 hPa | 0 mm | 1.34 m/s, 238° | 609 W/m² | - |
| 1777714225 | 24.44° C | 30% | 1021.2 hPa | 0 mm | 2.24 m/s, 87° | 607 W/m² | - |
| 1777714164 | 24.44° C | 34% | 1021.2 hPa | 0 mm | 0.89 m/s, 258° | 605 W/m² | - |
| 1777714104 | 24.44° C | 32% | 1021.2 hPa | 0 mm | 0.45 m/s, 95° | 605 W/m² | - |
| 1777714044 | 24.44° C | 31% | 1020.9 hPa | 0 mm | 0.89 m/s, 224° | 605 W/m² | - |
| 1777713985 | 24.44° C | 31% | 1021.1 hPa | 0 mm | 2.68 m/s, 172° | 602 W/m² | - |
* Rain latest hour (hover to see other rain measurements)
** Current wind speed in m/s (hover to see current wind gust speed)